Time;durP1;ratioP1;P1;durP2;ratioP2;P2;SDS_P1;SDS_P2;PMS_P1;PMS_P2;Temp;Humidity;BMP_temperature;BMP_pressure;BME280_temperature;BME280_humidity;BME280_pressure;Samples;Min_cycle;Max_cycle;Signal;HPM_P1;HPM_P2
2023/05/09 00:00:09;;;;;;;29.08;7.85;;;12.70;99.90;;;;;;5034805;28;20430;-72
2023/05/09 00:02:37;;;;;;;25.17;7.20;;;12.60;99.90;;;;;;5052553;28;20174;-72
2023/05/09 00:05:03;;;;;;;34.67;8.27;;;12.60;99.90;;;;;;5035217;28;20025;-72
2023/05/09 00:07:30;;;;;;;28.42;6.65;;;12.60;99.90;;;;;;5052412;28;20029;-74
2023/05/09 00:09:56;;;;;;;24.67;8.05;;;12.60;99.90;;;;;;5052744;28;20063;-72
2023/05/09 00:12:22;;;;;;;31.73;7.32;;;12.50;99.90;;;;;;5052504;28;20025;-72
2023/05/09 00:14:50;;;;;;;29.42;7.40;;;12.50;99.90;;;;;;5052569;28;20037;-73
2023/05/09 00:17:17;;;;;;;25.73;6.97;;;12.50;99.90;;;;;;5053044;28;20050;-72
2023/05/09 00:19:44;;;;;;;28.00;7.45;;;12.50;99.90;;;;;;5034347;28;20040;-72
2023/05/09 00:22:11;;;;;;;25.05;7.65;;;12.50;99.90;;;;;;5052596;28;20025;-72
2023/05/09 00:24:37;;;;;;;28.45;7.35;;;12.50;99.90;;;;;;5051951;28;20021;-72
2023/05/09 00:27:03;;;;;;;24.52;7.28;;;12.40;99.90;;;;;;5052620;28;20036;-72
2023/05/09 00:29:29;;;;;;;32.95;9.43;;;12.40;99.90;;;;;;5052271;28;20128;-72
2023/05/09 00:31:55;;;;;;;23.13;7.25;;;12.40;99.90;;;;;;5052116;28;20024;-72
2023/05/09 00:34:21;;;;;;;29.75;8.00;;;12.40;99.90;;;;;;5034451;28;20502;-72
2023/05/09 00:36:46;;;;;;;28.30;8.15;;;12.30;99.90;;;;;;5052387;28;20304;-72
2023/05/09 00:39:12;;;;;;;33.55;8.40;;;12.30;99.90;;;;;;5052523;28;20446;-72
2023/05/09 00:41:38;;;;;;;30.13;7.30;;;12.30;99.90;;;;;;5034376;28;20068;-72
2023/05/09 00:44:04;;;;;;;25.73;6.97;;;12.30;99.90;;;;;;5052326;28;20029;-71
2023/05/09 00:46:30;;;;;;;29.67;7.35;;;12.40;99.90;;;;;;5052149;28;20021;-71
2023/05/09 00:48:56;;;;;;;27.30;7.00;;;12.30;99.90;;;;;;5052082;28;20033;-72
2023/05/09 00:51:23;;;;;;;30.20;6.90;;;12.40;99.90;;;;;;5052340;28;20070;-72
2023/05/09 00:53:49;;;;;;;26.10;7.38;;;12.40;99.90;;;;;;5051704;28;20054;-73
2023/05/09 00:56:15;;;;;;;25.48;7.38;;;12.40;99.90;;;;;;5052244;28;20385;-72
2023/05/09 00:58:41;;;;;;;27.27;6.75;;;12.40;99.90;;;;;;5051970;28;20469;-74
2023/05/09 01:01:10;;;;;;;27.88;7.20;;;12.50;99.90;;;;;;5052064;28;20025;-71
2023/05/09 01:03:37;;;;;;;22.85;7.35;;;12.50;99.90;;;;;;5051419;28;20029;-73
2023/05/09 01:06:18;;;;;;;30.70;6.45;;;12.50;99.90;;;;;;5052064;28;20040;-72
2023/05/09 01:09:01;;;;;;;27.13;6.57;;;12.50;99.90;;;;;;5051565;28;20044;-72
2023/05/09 01:11:30;;;;;;;25.75;6.18;;;12.40;99.90;;;;;;5051606;28;20407;-72
2023/05/09 01:14:07;;;;;;;27.17;5.93;;;12.50;99.90;;;;;;5051513;28;20087;-72
2023/05/09 01:17:05;;;;;;;22.80;5.70;;;12.50;99.90;;;;;;5033784;28;20040;-75
2023/05/09 01:19:49;;;;;;;20.60;5.97;;;12.40;99.90;;;;;;4962905;28;20412;-73
2023/05/09 01:22:16;;;;;;;22.58;6.38;;;12.30;99.90;;;;;;5051684;28;20025;-72
2023/05/09 01:25:06;;;;;;;26.65;6.57;;;12.30;99.90;;;;;;5050974;28;20025;-73
2023/05/09 01:27:46;;;;;;;29.70;6.60;;;12.30;99.90;;;;;;5051439;28;20033;-72
2023/05/09 01:30:12;;;;;;;29.27;7.15;;;12.20;99.90;;;;;;5051196;28;20061;-72
2023/05/09 01:32:41;;;;;;;22.73;7.10;;;12.20;99.90;;;;;;5050976;28;20055;-73
2023/05/09 01:35:12;;;;;;;24.23;6.18;;;12.10;99.90;;;;;;5033518;28;20028;-72
2023/05/09 01:37:41;;;;;;;29.25;6.32;;;12.10;99.90;;;;;;5050613;28;20052;-73
2023/05/09 01:40:13;;;;;;;36.20;7.10;;;12.20;99.90;;;;;;5051451;28;20044;-72
2023/05/09 01:42:48;;;;;;;21.50;5.78;;;12.10;99.90;;;;;;5050767;28;20059;-72
2023/05/09 01:45:15;;;;;;;28.55;7.15;;;12.00;99.90;;;;;;5050820;28;20021;-72
2023/05/09 01:47:42;;;;;;;21.58;6.10;;;12.00;99.90;;;;;;5050539;28;20455;-73
2023/05/09 01:50:10;;;;;;;28.17;6.10;;;11.90;99.90;;;;;;5032712;28;20052;-72
2023/05/09 01:52:37;;;;;;;27.98;6.10;;;11.90;99.90;;;;;;5050631;28;20122;-75
2023/05/09 01:55:05;;;;;;;28.98;6.38;;;11.90;99.90;;;;;;5050494;28;20434;-72
2023/05/09 01:57:32;;;;;;;26.65;5.82;;;11.80;99.90;;;;;;5050705;28;20052;-73
2023/05/09 02:00:00;;;;;;;28.38;6.72;;;11.80;99.90;;;;;;5050461;28;20064;-72
2023/05/09 02:02:26;;;;;;;30.10;6.60;;;11.80;99.90;;;;;;5050572;28;20104;-72
2023/05/09 02:04:55;;;;;;;30.75;6.32;;;11.90;99.90;;;;;;5050183;28;20059;-72
2023/05/09 02:07:23;;;;;;;30.92;6.43;;;11.90;99.90;;;;;;5050783;28;20025;-72
2023/05/09 02:09:50;;;;;;;24.70;6.10;;;11.80;99.90;;;;;;5049808;28;20036;-71
2023/05/09 02:12:16;;;;;;;29.17;6.78;;;11.80;99.90;;;;;;5050149;28;20064;-71
2023/05/09 02:14:42;;;;;;;27.48;5.82;;;11.80;99.90;;;;;;5049950;28;20129;-72
2023/05/09 02:17:09;;;;;;;33.13;6.97;;;11.70;99.90;;;;;;5050245;28;20033;-71
2023/05/09 02:19:35;;;;;;;30.25;6.20;;;11.70;99.90;;;;;;5050212;28;20116;-72
2023/05/09 02:22:03;;;;;;;28.98;5.93;;;11.70;99.90;;;;;;5049904;28;20148;-72
2023/05/09 02:24:32;;;;;;;24.15;6.47;;;11.60;99.90;;;;;;5050193;28;20067;-72
2023/05/09 02:27:00;;;;;;;30.13;6.20;;;11.60;99.90;;;;;;5049691;28;20089;-73
2023/05/09 02:29:49;;;;;;;23.55;5.75;;;11.60;99.90;;;;;;5049865;28;20451;-72
2023/05/09 02:32:24;;;;;;;30.85;6.50;;;11.60;99.90;;;;;;5049536;28;20032;-72
2023/05/09 02:34:54;;;;;;;30.08;6.13;;;11.70;99.90;;;;;;5049741;28;20017;-72
2023/05/09 02:37:21;;;;;;;33.78;6.25;;;11.60;99.90;;;;;;5050224;28;20029;-72
2023/05/09 02:39:48;;;;;;;29.75;5.78;;;11.60;99.90;;;;;;5049665;28;20060;-72
2023/05/09 02:42:21;;;;;;;23.52;5.95;;;11.60;99.90;;;;;;5050426;28;20021;-72
2023/05/09 02:44:47;;;;;;;27.55;5.30;;;11.60;99.90;;;;;;5050254;28;20055;-73
2023/05/09 02:47:13;;;;;;;28.42;5.93;;;11.60;99.90;;;;;;5055216;28;20049;-72
2023/05/09 02:49:38;;;;;;;29.08;6.20;;;11.60;99.90;;;;;;5057000;28;20178;-72
2023/05/09 02:52:04;;;;;;;22.45;5.68;;;11.60;99.90;;;;;;5038356;28;20112;-73
2023/05/09 02:54:30;;;;;;;31.23;6.72;;;11.60;99.90;;;;;;5057256;28;20031;-72
2023/05/09 02:56:55;;;;;;;26.75;6.38;;;11.60;99.90;;;;;;5056480;28;20020;-72
2023/05/09 02:59:21;;;;;;;32.08;6.45;;;11.50;99.90;;;;;;5056597;28;20466;-72
2023/05/09 03:01:47;;;;;;;21.17;5.20;;;11.50;99.90;;;;;;5056249;28;20130;-72
2023/05/09 03:04:13;;;;;;;26.65;5.78;;;11.50;99.90;;;;;;5056633;28;20362;-73
2023/05/09 03:06:38;;;;;;;25.40;5.65;;;11.50;99.90;;;;;;5056614;28;20029;-73
2023/05/09 03:09:04;;;;;;;23.90;5.63;;;11.40;99.90;;;;;;5056173;28;20028;-73
2023/05/09 03:11:30;;;;;;;25.58;5.75;;;11.40;99.90;;;;;;5056610;28;20036;-73
2023/05/09 03:13:56;;;;;;;17.30;4.78;;;11.40;99.90;;;;;;5056280;28;20032;-73
2023/05/09 03:16:21;;;;;;;20.77;4.75;;;11.40;99.90;;;;;;5056832;28;20035;-72
2023/05/09 03:18:47;;;;;;;21.27;5.68;;;11.40;99.90;;;;;;5056275;28;20383;-73
2023/05/09 03:21:13;;;;;;;22.13;5.80;;;11.40;99.90;;;;;;5038498;28;20028;-71
2023/05/09 03:23:39;;;;;;;24.27;5.95;;;11.50;99.90;;;;;;5056123;28;20072;-73
2023/05/09 03:26:04;;;;;;;21.42;5.28;;;11.50;99.90;;;;;;5056127;28;20025;-73
2023/05/09 03:28:30;;;;;;;26.98;5.95;;;11.40;99.90;;;;;;5056338;28;20458;-72
2023/05/09 03:30:56;;;;;;;26.25;6.63;;;11.40;99.90;;;;;;5056113;28;20466;-73
2023/05/09 03:33:21;;;;;;;22.10;6.63;;;11.40;99.90;;;;;;5056625;28;20037;-72
2023/05/09 03:35:47;;;;;;;22.20;5.70;;;11.30;99.90;;;;;;5055770;28;20097;-73
2023/05/09 03:38:13;;;;;;;23.55;6.43;;;11.30;99.90;;;;;;5056528;28;20036;-73
2023/05/09 03:40:39;;;;;;;19.02;5.43;;;11.40;99.90;;;;;;5056453;28;20081;-73
2023/05/09 03:43:04;;;;;;;25.20;5.85;;;11.30;99.90;;;;;;5055866;28;20277;-73
2023/05/09 03:45:30;;;;;;;20.50;5.35;;;11.30;99.90;;;;;;5056204;28;20028;-72
2023/05/09 03:47:56;;;;;;;19.88;5.07;;;11.30;99.90;;;;;;5055895;28;20257;-73
2023/05/09 03:50:22;;;;;;;25.75;5.95;;;11.30;99.90;;;;;;5056290;28;20386;-72
2023/05/09 03:52:49;;;;;;;23.73;5.25;;;11.30;99.90;;;;;;5055814;28;20413;-73
2023/05/09 03:55:15;;;;;;;21.17;5.68;;;11.30;99.90;;;;;;5056110;28;20029;-73
2023/05/09 03:57:41;;;;;;;20.35;5.53;;;11.20;99.90;;;;;;5053825;28;20025;-73
2023/05/09 04:00:09;;;;;;;23.75;6.10;;;11.20;99.90;;;;;;5052403;28;20029;-73
2023/05/09 04:02:34;;;;;;;19.73;4.97;;;11.20;99.90;;;;;;5052923;28;20053;-73
2023/05/09 04:05:01;;;;;;;21.20;5.40;;;11.20;99.90;;;;;;5034895;28;20068;-73
2023/05/09 04:07:27;;;;;;;21.52;5.28;;;11.10;99.90;;;;;;5053138;28;20021;-73
2023/05/09 04:09:54;;;;;;;20.95;5.43;;;11.20;99.90;;;;;;5052218;28;20072;-73
2023/05/09 04:12:20;;;;;;;21.85;5.90;;;11.20;99.90;;;;;;5053318;28;20071;-71
2023/05/09 04:14:46;;;;;;;19.52;5.40;;;11.20;99.90;;;;;;5052784;28;20025;-75
2023/05/09 04:17:12;;;;;;;22.40;5.55;;;11.30;99.90;;;;;;5053072;28;20500;-71
2023/05/09 04:19:38;;;;;;;15.32;5.40;;;11.30;99.90;;;;;;5052591;28;20043;-71
2023/05/09 04:22:03;;;;;;;21.25;5.38;;;11.30;99.90;;;;;;5052207;28;20025;-73
2023/05/09 04:24:29;;;;;;;21.42;5.72;;;11.30;99.90;;;;;;5052693;28;20033;-72
2023/05/09 04:26:56;;;;;;;29.88;6.70;;;11.30;99.90;;;;;;5051946;28;20029;-73
2023/05/09 04:29:21;;;;;;;17.00;5.20;;;11.30;99.90;;;;;;5052284;28;20559;-73
2023/05/09 04:31:47;;;;;;;29.08;6.30;;;11.30;99.90;;;;;;5052284;28;20107;-76
2023/05/09 04:34:13;;;;;;;22.23;6.00;;;11.30;99.90;;;;;;5052106;28;20218;-73
2023/05/09 04:36:39;;;;;;;25.35;5.57;;;11.40;99.90;;;;;;5052086;28;20110;-72
2023/05/09 04:39:05;;;;;;;20.95;5.88;;;11.40;99.90;;;;;;5033541;28;20033;-72
2023/05/09 04:41:31;;;;;;;21.30;5.65;;;11.40;99.90;;;;;;5051845;28;20029;-72
2023/05/09 04:43:56;;;;;;;28.55;6.13;;;11.40;99.90;;;;;;5051313;28;20029;-72
2023/05/09 04:46:22;;;;;;;19.83;5.15;;;11.40;99.90;;;;;;5052427;28;20033;-72
2023/05/09 04:48:49;;;;;;;24.67;6.47;;;11.50;99.90;;;;;;5051335;28;20485;-75
2023/05/09 04:51:14;;;;;;;23.20;5.88;;;11.60;99.90;;;;;;5052092;28;20373;-72
2023/05/09 04:53:40;;;;;;;19.42;6.20;;;11.60;99.90;;;;;;5034163;28;20037;-73
2023/05/09 04:56:06;;;;;;;21.80;5.82;;;11.60;99.90;;;;;;5051467;28;20103;-73
2023/05/09 04:58:33;;;;;;;22.08;5.88;;;11.70;99.90;;;;;;5033891;28;20036;-73
2023/05/09 05:00:59;;;;;;;23.38;5.68;;;11.70;99.90;;;;;;5051167;28;20073;-73
2023/05/09 05:03:24;;;;;;;17.55;4.82;;;11.70;99.90;;;;;;5051503;28;20060;-72
2023/05/09 05:05:50;;;;;;;23.20;5.55;;;11.70;99.90;;;;;;5050939;28;20028;-75
2023/05/09 05:08:16;;;;;;;20.80;5.57;;;11.70;99.90;;;;;;5051435;28;20029;-73
2023/05/09 05:10:41;;;;;;;20.77;6.20;;;11.70;99.90;;;;;;5051291;28;20068;-72
2023/05/09 05:13:07;;;;;;;25.77;5.65;;;11.80;99.90;;;;;;5051413;28;20453;-72
2023/05/09 05:15:33;;;;;;;19.05;5.97;;;11.90;99.90;;;;;;5051472;28;20032;-73
2023/05/09 05:17:58;;;;;;;23.80;5.40;;;11.90;99.90;;;;;;5051331;28;20054;-73
2023/05/09 05:20:24;;;;;;;21.58;5.40;;;11.90;99.90;;;;;;5051073;28;20037;-73
2023/05/09 05:22:50;;;;;;;22.20;5.57;;;12.00;99.90;;;;;;5051202;28;20025;-75
2023/05/09 05:25:17;;;;;;;25.95;5.70;;;12.00;99.90;;;;;;5051191;28;20319;-73
2023/05/09 05:27:43;;;;;;;26.52;6.07;;;12.00;99.90;;;;;;5033094;28;20033;-73
2023/05/09 05:30:09;;;;;;;25.23;5.53;;;12.00;99.90;;;;;;5050694;28;20059;-73
2023/05/09 05:32:35;;;;;;;21.63;5.57;;;12.10;99.90;;;;;;5051153;28;20025;-73
2023/05/09 05:35:02;;;;;;;21.02;4.93;;;12.10;99.90;;;;;;5050480;28;20113;-73
2023/05/09 05:37:28;;;;;;;24.17;5.72;;;12.10;99.90;;;;;;5050732;28;20480;-72
2023/05/09 05:39:53;;;;;;;23.80;5.75;;;12.10;99.90;;;;;;5050550;28;20078;-73
2023/05/09 05:42:19;;;;;;;18.20;5.18;;;12.10;99.90;;;;;;5050986;28;20078;-73
2023/05/09 05:44:45;;;;;;;25.85;5.78;;;12.10;99.90;;;;;;5051090;28;20036;-72
2023/05/09 05:47:10;;;;;;;23.38;5.25;;;12.10;99.90;;;;;;5050367;28;20215;-73
2023/05/09 05:49:36;;;;;;;23.70;6.18;;;12.10;99.90;;;;;;5051876;28;20325;-73
2023/05/09 05:52:02;;;;;;;22.38;5.80;;;12.20;99.90;;;;;;5050880;28;20041;-73
2023/05/09 05:54:28;;;;;;;20.60;5.88;;;12.20;99.90;;;;;;5051092;28;20073;-72
2023/05/09 05:56:53;;;;;;;18.88;5.38;;;12.20;99.90;;;;;;5050726;28;20411;-74
2023/05/09 05:59:19;;;;;;;23.83;6.05;;;12.20;99.90;;;;;;5050989;28;20033;-73
2023/05/09 06:01:45;;;;;;;23.60;6.05;;;12.20;99.90;;;;;;5051114;28;20040;-72
2023/05/09 06:04:10;;;;;;;25.00;5.45;;;12.30;99.90;;;;;;5050673;28;20100;-73
2023/05/09 06:06:36;;;;;;;29.88;6.28;;;12.30;99.90;;;;;;5050778;28;20022;-73
2023/05/09 06:09:02;;;;;;;21.70;5.80;;;12.30;99.90;;;;;;5050754;28;20482;-73
2023/05/09 06:11:28;;;;;;;23.55;6.40;;;12.30;99.90;;;;;;5050467;28;20029;-73
2023/05/09 06:13:53;;;;;;;28.90;5.45;;;12.30;99.90;;;;;;5050484;28;20025;-76
2023/05/09 06:16:20;;;;;;;29.85;6.38;;;12.40;99.90;;;;;;5050412;28;20028;-73
2023/05/09 06:18:46;;;;;;;24.30;6.43;;;12.40;99.90;;;;;;5032709;28;20359;-73
2023/05/09 06:21:11;;;;;;;24.80;5.90;;;12.50;99.90;;;;;;5049002;28;20033;-72
2023/05/09 06:23:38;;;;;;;19.20;5.03;;;12.50;99.90;;;;;;5050536;28;20028;-72
2023/05/09 06:26:04;;;;;;;19.90;6.15;;;12.60;99.90;;;;;;5049939;28;20039;-72
2023/05/09 06:28:29;;;;;;;21.77;5.82;;;12.70;99.90;;;;;;5050089;28;20111;-72
2023/05/09 06:30:55;;;;;;;28.40;6.88;;;12.70;99.90;;;;;;5050400;28;20506;-75
2023/05/09 06:33:21;;;;;;;26.23;6.10;;;12.70;99.90;;;;;;5050799;28;20370;-71
2023/05/09 06:35:46;;;;;;;22.73;5.43;;;12.80;99.90;;;;;;5050531;28;20029;-72
2023/05/09 06:38:12;;;;;;;23.35;5.60;;;12.90;99.90;;;;;;5049962;28;20032;-73
2023/05/09 06:40:38;;;;;;;19.98;5.53;;;13.10;99.90;;;;;;5050554;28;20139;-73
2023/05/09 06:43:04;;;;;;;23.80;5.85;;;13.20;99.90;;;;;;5049997;28;20036;-73
2023/05/09 06:45:29;;;;;;;23.30;6.15;;;13.30;99.90;;;;;;5050184;28;20466;-73
2023/05/09 06:47:55;;;;;;;22.15;5.70;;;13.40;99.90;;;;;;5049698;28;20052;-77
2023/05/09 06:50:21;;;;;;;21.92;5.32;;;13.40;99.90;;;;;;5050177;28;20098;-72
2023/05/09 06:52:47;;;;;;;27.42;5.88;;;13.60;99.90;;;;;;5050223;28;20083;-73
2023/05/09 06:55:13;;;;;;;23.70;5.22;;;13.50;99.90;;;;;;5049411;28;20119;-73
2023/05/09 06:57:41;;;;;;;25.33;6.10;;;13.50;99.90;;;;;;5050142;28;20520;-73
2023/05/09 07:00:08;;;;;;;22.08;6.28;;;13.50;99.90;;;;;;5049560;28;20474;-73
2023/05/09 07:02:34;;;;;;;21.73;6.07;;;13.60;99.90;;;;;;5050126;28;20032;-74
2023/05/09 07:05:00;;;;;;;22.55;5.90;;;13.80;99.90;;;;;;5049907;28;20210;-74
2023/05/09 07:07:25;;;;;;;25.63;5.57;;;13.90;99.90;;;;;;5032033;28;20153;-73
2023/05/09 07:09:51;;;;;;;24.92;5.60;;;14.10;99.90;;;;;;5050115;28;20036;-74
2023/05/09 07:12:17;;;;;;;25.23;6.20;;;14.10;99.90;;;;;;5049264;28;20029;-73
2023/05/09 07:14:43;;;;;;;27.02;5.25;;;14.30;99.90;;;;;;5032444;28;20138;-74
2023/05/09 07:17:08;;;;;;;21.30;5.03;;;14.40;99.90;;;;;;5049558;28;20442;-75
2023/05/09 07:19:34;;;;;;;21.85;5.13;;;14.50;99.90;;;;;;5050035;28;20025;-73
2023/05/09 07:22:00;;;;;;;23.50;5.55;;;14.60;99.90;;;;;;5049934;28;20029;-74
2023/05/09 07:24:26;;;;;;;29.08;6.18;;;14.60;99.90;;;;;;5050210;28;20056;-74
2023/05/09 07:26:52;;;;;;;23.90;5.50;;;14.60;99.90;;;;;;5050153;28;20103;-73
2023/05/09 07:29:19;;;;;;;19.00;5.68;;;14.70;99.90;;;;;;5031448;28;20053;-74
2023/05/09 07:31:44;;;;;;;27.70;5.85;;;14.90;99.90;;;;;;5032407;28;20029;-73
2023/05/09 07:34:10;;;;;;;25.13;5.38;;;14.80;99.90;;;;;;5035867;28;20025;-74
2023/05/09 07:36:37;;;;;;;23.63;5.10;;;14.90;99.90;;;;;;5053823;28;20029;-74
2023/05/09 07:39:03;;;;;;;21.20;5.10;;;15.00;99.90;;;;;;5053667;28;20123;-74
2023/05/09 07:41:30;;;;;;;24.40;5.45;;;15.10;99.90;;;;;;5035674;28;20040;-74
2023/05/09 07:43:55;;;;;;;23.17;5.30;;;15.10;99.90;;;;;;5053397;28;20466;-73
2023/05/09 07:46:21;;;;;;;21.55;5.10;;;15.10;99.90;;;;;;5053391;28;20086;-74
2023/05/09 07:48:47;;;;;;;21.55;5.70;;;15.10;99.90;;;;;;5053985;28;20025;-73
2023/05/09 07:51:13;;;;;;;22.60;5.15;;;15.20;99.90;;;;;;5053323;28;20086;-73
2023/05/09 07:53:38;;;;;;;21.08;5.40;;;15.20;99.90;;;;;;5053504;28;20097;-73
2023/05/09 07:56:05;;;;;;;24.13;6.38;;;15.30;99.90;;;;;;5053454;28;20029;-73
2023/05/09 07:58:32;;;;;;;23.70;5.57;;;15.20;99.90;;;;;;5053554;28;20351;-73
2023/05/09 08:00:57;;;;;;;23.70;6.30;;;15.30;99.90;;;;;;5053571;28;20121;-73
2023/05/09 08:03:23;;;;;;;24.27;7.40;;;15.30;99.90;;;;;;5052955;28;20108;-73
2023/05/09 08:05:53;;;;;;;25.42;6.60;;;15.30;99.90;;;;;;5035326;28;20036;-73
2023/05/09 08:08:19;;;;;;;18.60;6.47;;;15.40;99.90;;;;;;5052563;28;20025;-73
2023/05/09 08:10:44;;;;;;;21.90;5.85;;;15.60;99.90;;;;;;5052905;28;20035;-73
2023/05/09 08:13:10;;;;;;;30.85;5.70;;;15.40;99.90;;;;;;5052946;28;20029;-73
2023/05/09 08:15:36;;;;;;;28.02;5.88;;;15.30;99.90;;;;;;5035042;28;20040;-73
2023/05/09 08:18:02;;;;;;;34.20;7.03;;;15.20;99.90;;;;;;5052814;28;20445;-76
2023/05/09 08:20:27;;;;;;;21.33;5.20;;;15.20;99.90;;;;;;5052869;28;20419;-74
2023/05/09 08:22:53;;;;;;;21.23;5.38;;;15.20;99.90;;;;;;5052551;28;20470;-74
2023/05/09 08:25:19;;;;;;;21.77;5.15;;;15.10;99.90;;;;;;5052644;28;20083;-74
2023/05/09 08:27:45;;;;;;;26.00;6.63;;;15.10;99.90;;;;;;5052938;28;20416;-74
2023/05/09 08:30:11;;;;;;;19.77;5.43;;;15.10;99.90;;;;;;5052171;28;20076;-75
2023/05/09 08:32:37;;;;;;;18.95;5.05;;;15.30;99.90;;;;;;5053445;28;20036;-75
2023/05/09 08:35:03;;;;;;;16.60;4.82;;;15.30;99.90;;;;;;5052630;28;20025;-77
2023/05/09 08:37:29;;;;;;;22.83;5.50;;;15.10;99.90;;;;;;5052819;28;20029;-75
2023/05/09 08:39:55;;;;;;;18.80;4.63;;;15.10;99.90;;;;;;5052729;28;20140;-74
2023/05/09 08:42:21;;;;;;;21.10;4.57;;;15.20;99.90;;;;;;5034102;28;20112;-74
2023/05/09 08:44:47;;;;;;;18.50;4.70;;;15.10;99.90;;;;;;5051872;28;20028;-74
2023/05/09 08:47:14;;;;;;;17.05;4.10;;;15.20;99.90;;;;;;5051714;28;20075;-75
2023/05/09 08:49:40;;;;;;;22.05;4.95;;;15.20;99.90;;;;;;5052627;28;20509;-75
2023/05/09 08:52:06;;;;;;;18.90;4.10;;;15.30;99.90;;;;;;5052115;28;20029;-75
2023/05/09 08:54:33;;;;;;;18.45;4.00;;;15.40;99.90;;;;;;5052385;28;20585;-74
2023/05/09 08:57:00;;;;;;;21.65;4.20;;;15.40;99.90;;;;;;5052291;28;20060;-76
2023/05/09 08:59:26;;;;;;;22.33;6.18;;;15.30;99.90;;;;;;5052303;28;20033;-75
2023/05/09 09:01:53;;;;;;;21.75;4.28;;;15.30;99.90;;;;;;5034644;28;20041;-74
2023/05/09 09:04:19;;;;;;;13.73;3.90;;;15.40;99.90;;;;;;5052017;28;20025;-74
2023/05/09 09:06:45;;;;;;;15.52;4.15;;;15.30;99.90;;;;;;5052535;28;20028;-74
2023/05/09 09:09:14;;;;;;;16.23;4.72;;;15.20;99.90;;;;;;5051720;28;20028;-75
2023/05/09 09:11:41;;;;;;;14.88;4.40;;;15.30;99.90;;;;;;5052797;28;20350;-74
2023/05/09 09:14:22;;;;;;;17.95;5.53;;;15.40;99.90;;;;;;5051822;28;20036;-73
2023/05/09 09:16:50;;;;;;;12.55;4.40;;;15.60;99.90;;;;;;5034459;28;20117;-74
2023/05/09 09:19:17;;;;;;;18.42;4.55;;;15.70;99.90;;;;;;5051904;28;20052;-74
2023/05/09 09:21:46;;;;;;;21.17;4.50;;;15.80;99.90;;;;;;5052777;28;20037;-74
2023/05/09 09:24:20;;;;;;;16.33;3.63;;;15.90;99.90;;;;;;5051744;28;20040;-74
2023/05/09 09:26:48;;;;;;;14.32;4.10;;;16.00;99.90;;;;;;5051958;28;20457;-74
2023/05/09 09:29:14;;;;;;;16.77;3.63;;;16.10;99.90;;;;;;5051539;28;20053;-73
2023/05/09 09:31:44;;;;;;;13.90;3.92;;;16.20;99.90;;;;;;5051624;28;20032;-74
2023/05/09 09:34:11;;;;;;;20.95;3.88;;;16.10;99.90;;;;;;5051350;28;20024;-74
2023/05/09 09:36:37;;;;;;;15.40;3.40;;;16.20;99.90;;;;;;5051652;28;20025;-74
2023/05/09 09:39:04;;;;;;;20.17;4.00;;;16.20;99.90;;;;;;5051467;28;20343;-74
2023/05/09 09:41:35;;;;;;;12.40;3.35;;;16.20;99.90;;;;;;5051158;28;20033;-74
2023/05/09 09:44:15;;;;;;;13.35;3.25;;;16.30;99.90;;;;;;5033938;28;20384;-74
2023/05/09 09:46:53;;;;;;;14.48;3.17;;;16.30;99.90;;;;;;5051336;28;20044;-74
2023/05/09 09:49:25;;;;;;;14.23;3.20;;;16.40;99.90;;;;;;5051385;28;20025;-74
2023/05/09 09:51:51;;;;;;;15.63;3.00;;;16.40;99.90;;;;;;5051379;28;20055;-74
2023/05/09 09:54:17;;;;;;;11.18;3.10;;;16.40;99.90;;;;;;5050863;28;20029;-74
2023/05/09 09:56:45;;;;;;;12.55;3.35;;;16.50;99.90;;;;;;5050642;28;20074;-74
2023/05/09 09:59:19;;;;;;;14.23;4.10;;;16.50;99.90;;;;;;5050926;28;20017;-75
2023/05/09 10:02:01;;;;;;;16.05;3.90;;;16.60;99.90;;;;;;5051552;28;20081;-75
2023/05/09 10:04:35;;;;;;;11.70;3.58;;;16.60;99.90;;;;;;5050942;28;20115;-75
2023/05/09 10:07:06;;;;;;;13.00;3.25;;;16.60;99.90;;;;;;5051281;28;20020;-75
2023/05/09 10:09:33;;;;;;;12.13;3.80;;;16.80;99.90;;;;;;5051035;28;20025;-74
2023/05/09 10:12:05;;;;;;;12.48;3.53;;;16.80;99.90;;;;;;5051140;28;20025;-75
2023/05/09 10:14:32;;;;;;;11.20;3.55;;;16.80;99.90;;;;;;5050870;28;20040;-75
2023/05/09 10:17:00;;;;;;;16.20;3.72;;;16.70;99.90;;;;;;5051352;28;20076;-74
2023/05/09 10:19:28;;;;;;;12.30;3.22;;;16.70;99.90;;;;;;5032510;28;20111;-74
2023/05/09 10:21:56;;;;;;;13.75;3.72;;;16.50;99.90;;;;;;5050958;28;20041;-74
2023/05/09 10:24:38;;;;;;;16.45;3.53;;;16.50;99.90;;;;;;5050585;28;20055;-74
2023/05/09 10:27:10;;;;;;;13.70;3.93;;;16.40;99.90;;;;;;5051039;28;20025;-74
2023/05/09 10:30:06;;;;;;;13.73;4.05;;;16.40;99.90;;;;;;5032901;28;20282;-74
2023/05/09 10:32:41;;;;;;;11.95;3.55;;;16.40;99.90;;;;;;5050706;28;20029;-74
2023/05/09 10:35:09;;;;;;;11.20;3.13;;;16.40;99.90;;;;;;5051306;28;20025;-75
2023/05/09 10:37:36;;;;;;;15.90;3.70;;;16.50;99.90;;;;;;5051484;28;20150;-75
2023/05/09 10:40:03;;;;;;;13.95;3.13;;;16.80;99.90;;;;;;5050878;28;20047;-74
2023/05/09 10:42:30;;;;;;;15.68;3.63;;;16.80;99.90;;;;;;5050096;28;20648;-75
2023/05/09 10:44:56;;;;;;;12.77;3.05;;;16.90;99.90;;;;;;5050910;28;20481;-75
2023/05/09 10:47:25;;;;;;;11.52;2.70;;;16.80;99.90;;;;;;5050591;28;20128;-75
2023/05/09 10:49:52;;;;;;;12.48;3.15;;;16.90;99.90;;;;;;5050999;28;20104;-75
2023/05/09 10:52:21;;;;;;;11.45;3.10;;;16.90;99.90;;;;;;5050555;28;20108;-76
2023/05/09 10:55:05;;;;;;;9.35;2.58;;;16.90;99.90;;;;;;5050875;28;20021;-73
2023/05/09 10:57:31;;;;;;;11.50;2.80;;;17.00;99.90;;;;;;5050506;28;20020;-73
2023/05/09 10:59:59;;;;;;;14.40;3.00;;;17.00;99.90;;;;;;5051250;28;20029;-74
2023/05/09 11:02:29;;;;;;;10.75;2.70;;;17.10;99.90;;;;;;5050896;28;20028;-73
2023/05/09 11:05:18;;;;;;;14.88;3.60;;;17.30;99.90;;;;;;5051070;28;20029;-74
2023/05/09 11:07:44;;;;;;;7.75;2.45;;;17.50;99.90;;;;;;5053129;28;20025;-74
2023/05/09 11:10:18;;;;;;;7.32;1.73;;;17.70;99.90;;;;;;5055032;28;20043;-74
2023/05/09 11:12:57;;;;;;;9.65;2.45;;;17.80;99.90;;;;;;5055202;28;20378;-74
2023/05/09 11:15:23;;;;;;;10.68;2.55;;;17.80;99.90;;;;;;5054362;28;20462;-74
2023/05/09 11:18:10;;;;;;;9.20;2.70;;;17.80;99.90;;;;;;5054661;28;20108;-74
2023/05/09 11:20:42;;;;;;;10.23;2.20;;;17.90;99.90;;;;;;5053855;28;20175;-74
2023/05/09 11:23:11;;;;;;;9.15;2.50;;;18.00;99.90;;;;;;5054877;28;20447;-74
2023/05/09 11:25:41;;;;;;;11.80;2.83;;;17.90;99.90;;;;;;5053807;28;20048;-74
2023/05/09 11:28:07;;;;;;;12.85;2.88;;;18.00;99.90;;;;;;5054214;28;20450;-74
2023/05/09 11:30:43;;;;;;;11.15;2.53;;;18.00;99.90;;;;;;5053555;28;20068;-75
2023/05/09 11:33:27;;;;;;;10.25;2.53;;;18.00;99.90;;;;;;5054022;28;20025;-74
2023/05/09 11:36:14;;;;;;;11.60;2.33;;;18.00;99.90;;;;;;5054220;28;20367;-73
2023/05/09 11:38:41;;;;;;;11.70;2.50;;;18.10;99.90;;;;;;5053771;28;20429;-74
2023/05/09 11:41:07;;;;;;;9.45;2.35;;;18.20;99.90;;;;;;5053503;28;20069;-73
2023/05/09 11:43:36;;;;;;;6.47;1.95;;;18.20;99.90;;;;;;5053463;28;20033;-73
2023/05/09 11:46:03;;;;;;;10.52;2.42;;;18.20;99.90;;;;;;5054059;28;20134;-73
2023/05/09 11:48:28;;;;;;;9.00;2.17;;;18.30;99.90;;;;;;5053119;28;20029;-73
2023/05/09 11:50:54;;;;;;;10.05;2.42;;;18.20;99.90;;;;;;5053570;28;20462;-73
2023/05/09 11:53:20;;;;;;;8.63;2.38;;;18.40;99.90;;;;;;5053195;28;20142;-73
2023/05/09 11:55:46;;;;;;;8.25;2.17;;;18.60;99.90;;;;;;5035358;28;20028;-72
2023/05/09 11:58:12;;;;;;;12.38;2.45;;;18.60;99.90;;;;;;5053515;28;20067;-73
2023/05/09 12:00:44;;;;;;;9.30;2.40;;;18.60;99.90;;;;;;5053003;28;20037;-74
2023/05/09 12:03:11;;;;;;;10.82;2.63;;;18.70;99.90;;;;;;5053684;28;20112;-74
2023/05/09 12:05:38;;;;;;;9.10;2.40;;;18.70;99.90;;;;;;5053232;28;20059;-74
2023/05/09 12:08:05;;;;;;;11.73;2.72;;;18.70;99.90;;;;;;5034702;28;20104;-73
2023/05/09 12:10:35;;;;;;;7.22;2.10;;;18.60;99.90;;;;;;5052000;28;20440;-72
2023/05/09 12:13:01;;;;;;;8.88;1.83;;;18.50;99.90;;;;;;5050955;28;20021;-73
2023/05/09 12:15:26;;;;;;;7.43;2.28;;;18.40;99.90;;;;;;5052530;28;20029;-73
2023/05/09 12:18:07;;;;;;;7.75;2.00;;;18.30;99.90;;;;;;5053331;28;20378;-73
2023/05/09 12:21:03;;;;;;;8.77;2.40;;;18.30;99.90;;;;;;5051840;28;20417;-73
2023/05/09 12:23:34;;;;;;;5.70;2.17;;;18.20;99.90;;;;;;5049238;28;20060;-73
2023/05/09 12:26:00;;;;;;;7.20;2.22;;;18.20;99.90;;;;;;5053015;28;20056;-73
2023/05/09 12:28:26;;;;;;;11.02;2.55;;;18.30;99.90;;;;;;5033383;28;20052;-74
2023/05/09 12:30:53;;;;;;;11.48;2.45;;;18.60;99.90;;;;;;5052529;28;20058;-74
2023/05/09 12:33:20;;;;;;;10.23;2.20;;;18.80;99.90;;;;;;5052215;28;20112;-75
2023/05/09 12:36:04;;;;;;;7.70;2.38;;;18.80;99.90;;;;;;5052826;28;20052;-74
2023/05/09 12:38:30;;;;;;;6.65;2.20;;;18.60;99.90;;;;;;5052403;28;20182;-74
2023/05/09 12:41:04;;;;;;;8.88;2.38;;;18.50;99.90;;;;;;5034953;28;20183;-74